createdAt,value
2022-08-01T00:00:58.023Z,1010.45
2022-08-01T00:01:58.074Z,1010.47
2022-08-01T00:02:58.079Z,1010.48
2022-08-01T00:03:57.951Z,1010.43
2022-08-01T00:04:57.929Z,1010.50
2022-08-01T00:05:57.903Z,1010.45
2022-08-01T00:06:57.885Z,1010.48
2022-08-01T00:07:57.861Z,1010.44
2022-08-01T00:08:57.837Z,1010.44
2022-08-01T00:09:57.815Z,1010.44
2022-08-01T00:11:01.442Z,1010.42
2022-08-01T00:12:00.068Z,1010.42
2022-08-01T00:12:57.751Z,1010.41
2022-08-01T00:13:57.729Z,1010.42
2022-08-01T00:14:57.706Z,1010.42
2022-08-01T00:15:57.680Z,1010.43
2022-08-01T00:16:57.659Z,1010.42
2022-08-01T00:17:57.633Z,1010.40
2022-08-01T00:18:57.616Z,1010.39
2022-08-01T00:19:57.591Z,1010.37
2022-08-01T00:20:57.568Z,1010.35
2022-08-01T00:21:57.543Z,1010.39
2022-08-01T00:22:57.529Z,1010.40
2022-08-01T00:23:57.497Z,1010.35
2022-08-01T00:24:57.483Z,1010.34
2022-08-01T00:25:57.459Z,1010.37
2022-08-01T00:26:57.433Z,1010.34
2022-08-01T00:27:57.409Z,1010.30
2022-08-01T00:28:57.389Z,1010.30
2022-08-01T00:30:11.714Z,1010.26
2022-08-01T00:30:57.339Z,1010.28
2022-08-01T00:31:57.320Z,1010.28
2022-08-01T00:32:57.298Z,1010.27
2022-08-01T00:33:57.270Z,1010.22
2022-08-01T00:34:57.248Z,1010.23
2022-08-01T00:35:57.226Z,1010.23
2022-08-01T00:36:57.202Z,1010.21
2022-08-01T00:37:57.196Z,1010.19
2022-08-01T00:38:57.157Z,1010.21
2022-08-01T00:39:57.135Z,1010.20
2022-08-01T00:40:57.115Z,1010.19
2022-08-01T00:42:01.676Z,1010.23
2022-08-01T00:42:57.071Z,1010.23
2022-08-01T00:43:57.045Z,1010.20
2022-08-01T00:44:57.019Z,1010.19
2022-08-01T00:45:56.999Z,1010.20
2022-08-01T00:46:56.975Z,1010.20
2022-08-01T00:47:56.950Z,1010.20
2022-08-01T00:48:56.962Z,1010.18
2022-08-01T00:49:56.908Z,1010.16
2022-08-01T00:50:56.885Z,1010.15
2022-08-01T00:51:56.861Z,1010.14
2022-08-01T00:52:56.841Z,1010.15
2022-08-01T00:53:56.817Z,1010.12
2022-08-01T00:54:56.794Z,1010.17
2022-08-01T00:55:56.773Z,1010.20
2022-08-01T00:56:56.751Z,1010.17
2022-08-01T00:58:05.542Z,1010.18
2022-08-01T00:58:56.704Z,1010.18
2022-08-01T00:59:56.684Z,1010.12
2022-08-01T01:00:56.697Z,1010.12
2022-08-01T01:01:56.691Z,1010.11
2022-08-01T01:02:56.615Z,1010.12
2022-08-01T01:03:58.963Z,1010.08
2022-08-01T01:04:56.570Z,1010.08
2022-08-01T01:05:56.545Z,1010.12
2022-08-01T01:06:56.524Z,1010.05
2022-08-01T01:07:56.498Z,1010.07
2022-08-01T01:08:56.478Z,1010.07
2022-08-01T01:09:56.455Z,1010.08
2022-08-01T01:10:56.435Z,1010.13
2022-08-01T01:11:56.412Z,1010.11
2022-08-01T01:12:56.388Z,1010.07
2022-08-01T01:13:56.363Z,1010.07
2022-08-01T01:14:56.343Z,1010.06
2022-08-01T01:15:56.324Z,1010.05
2022-08-01T01:16:56.297Z,1010.05
2022-08-01T01:17:56.275Z,1010.06
2022-08-01T01:18:56.253Z,1010.04
2022-08-01T01:19:56.229Z,1010.05
2022-08-01T01:20:56.207Z,1010.02
2022-08-01T01:21:56.186Z,1010.04
2022-08-01T01:22:56.161Z,1010.04
2022-08-01T01:23:56.140Z,1010.03
2022-08-01T01:24:56.115Z,1010.04
2022-08-01T01:25:56.095Z,1010.06
2022-08-01T01:26:56.070Z,1010.03
2022-08-01T01:27:56.048Z,1010.02
2022-08-01T01:28:56.026Z,1010.03
2022-08-01T01:29:59.335Z,1010.02
2022-08-01T01:30:55.983Z,1010.01
2022-08-01T01:31:55.958Z,1010.03
2022-08-01T01:32:55.938Z,1009.98
2022-08-01T01:33:55.910Z,1010.02
2022-08-01T01:34:55.889Z,1009.97
2022-08-01T01:35:55.866Z,1009.98
2022-08-01T01:36:55.844Z,1010.04
2022-08-01T01:37:55.820Z,1010.02
2022-08-01T01:38:55.800Z,1010.02
2022-08-01T01:39:55.777Z,1010.03
2022-08-01T01:40:55.754Z,1010.00
2022-08-01T01:41:55.731Z,1010.04
2022-08-01T01:42:55.708Z,1010.02
2022-08-01T01:43:55.685Z,1010.04
2022-08-01T01:44:55.669Z,1010.04
2022-08-01T01:45:55.640Z,1010.08
2022-08-01T01:46:55.618Z,1010.05
2022-08-01T01:47:55.609Z,1010.08
2022-08-01T01:48:55.625Z,1010.07
2022-08-01T01:49:55.550Z,1010.09
2022-08-01T01:50:55.527Z,1010.06
2022-08-01T01:52:02.074Z,1010.08
2022-08-01T01:52:55.482Z,1010.06
2022-08-01T01:53:55.460Z,1010.06
2022-08-01T01:54:55.439Z,1010.07
2022-08-01T01:55:55.420Z,1010.08
2022-08-01T01:56:55.393Z,1010.09
2022-08-01T01:57:55.371Z,1010.09
2022-08-01T01:58:55.347Z,1010.11
2022-08-01T01:59:55.329Z,1010.13
2022-08-01T02:00:55.305Z,1010.08
2022-08-01T02:02:03.537Z,1010.06
2022-08-01T02:02:55.325Z,1010.13
2022-08-01T02:03:55.235Z,1010.10
2022-08-01T02:04:55.212Z,1010.13
2022-08-01T02:05:55.190Z,1010.11
2022-08-01T02:06:55.166Z,1010.12
2022-08-01T02:07:59.392Z,1010.14
2022-08-01T02:08:55.124Z,1010.14
2022-08-01T02:09:55.100Z,1010.13
2022-08-01T02:10:55.077Z,1010.15
2022-08-01T02:12:07.557Z,1010.17
2022-08-01T02:12:55.035Z,1010.11
2022-08-01T02:13:55.011Z,1010.14
2022-08-01T02:14:54.987Z,1010.11
2022-08-01T02:15:59.459Z,1010.14
2022-08-01T02:16:54.943Z,1010.11
2022-08-01T02:17:54.921Z,1010.15
2022-08-01T02:18:54.897Z,1010.14
2022-08-01T02:19:54.878Z,1010.15
2022-08-01T02:20:54.852Z,1010.14
2022-08-01T02:21:54.829Z,1010.12
2022-08-01T02:22:54.811Z,1010.15
2022-08-01T02:23:54.786Z,1010.15
2022-08-01T02:24:54.762Z,1010.09
2022-08-01T02:26:09.539Z,1010.15
2022-08-01T02:26:54.718Z,1010.15
2022-08-01T02:27:54.697Z,1010.18
2022-08-01T02:28:54.672Z,1010.15
2022-08-01T02:29:54.649Z,1010.13
2022-08-01T02:30:54.633Z,1010.11
2022-08-01T02:31:54.607Z,1010.15
2022-08-01T02:32:54.585Z,1010.14
2022-08-01T02:33:54.561Z,1010.09
2022-08-01T02:34:54.536Z,1010.05
2022-08-01T02:36:31.145Z,1010.05
2022-08-01T02:36:54.493Z,1010.05
2022-08-01T02:37:54.469Z,1010.08
2022-08-01T02:38:54.451Z,1010.07
2022-08-01T02:39:54.429Z,1010.08
2022-08-01T02:40:54.403Z,1010.08
2022-08-01T02:41:54.381Z,1010.06
2022-08-01T02:42:54.359Z,1010.06
2022-08-01T02:43:54.336Z,1010.07
2022-08-01T02:44:54.315Z,1010.07
2022-08-01T02:45:54.291Z,1010.09
2022-08-01T02:46:54.269Z,1010.08
2022-08-01T02:47:54.250Z,1010.07
2022-08-01T02:48:54.292Z,1010.06
2022-08-01T02:49:54.203Z,1010.06
2022-08-01T02:50:54.183Z,1010.04
2022-08-01T02:51:54.160Z,1010.04
2022-08-01T02:52:54.135Z,1010.07
2022-08-01T02:53:54.111Z,1010.06
2022-08-01T02:54:54.093Z,1010.08
2022-08-01T02:55:54.073Z,1010.08
2022-08-01T02:56:54.044Z,1010.09
2022-08-01T02:57:56.911Z,1010.11
2022-08-01T02:58:54.003Z,1010.11
2022-08-01T02:59:53.981Z,1010.12
2022-08-01T03:00:53.956Z,1010.12
2022-08-01T03:01:55.170Z,1010.17
2022-08-01T03:02:53.913Z,1010.18
2022-08-01T03:03:53.889Z,1010.14
2022-08-01T03:04:57.044Z,1010.15
2022-08-01T03:05:53.843Z,1010.15
2022-08-01T03:06:53.822Z,1010.16
2022-08-01T03:07:53.800Z,1010.17
2022-08-01T03:08:53.778Z,1010.21
2022-08-01T03:09:53.884Z,1010.22
2022-08-01T03:10:53.732Z,1010.21
2022-08-01T03:11:53.712Z,1010.22
2022-08-01T03:12:53.689Z,1010.23
2022-08-01T03:13:53.683Z,1010.24
2022-08-01T03:14:53.644Z,1010.23
2022-08-01T03:15:53.621Z,1010.21
2022-08-01T03:16:53.600Z,1010.22
2022-08-01T03:17:53.574Z,1010.23
2022-08-01T03:18:53.554Z,1010.27
2022-08-01T03:19:53.530Z,1010.26
2022-08-01T03:20:53.509Z,1010.27
2022-08-01T03:21:53.488Z,1010.26
2022-08-01T03:22:53.465Z,1010.29
2022-08-01T03:23:55.209Z,1010.33
2022-08-01T03:24:53.420Z,1010.30
2022-08-01T03:25:53.400Z,1010.32
2022-08-01T03:26:53.379Z,1010.30
2022-08-01T03:27:53.356Z,1010.29
2022-08-01T03:28:53.330Z,1010.31
2022-08-01T03:29:53.312Z,1010.36
2022-08-01T03:30:53.286Z,1010.32
2022-08-01T03:31:53.265Z,1010.39
2022-08-01T03:32:53.245Z,1010.35
2022-08-01T03:33:53.221Z,1010.38
2022-08-01T03:34:53.199Z,1010.40
2022-08-01T03:35:53.177Z,1010.38
2022-08-01T03:36:53.161Z,1010.40
2022-08-01T03:38:15.358Z,1010.41
2022-08-01T03:38:53.108Z,1010.44
2022-08-01T03:39:53.087Z,1010.43
2022-08-01T03:40:53.065Z,1010.44
2022-08-01T03:41:56.620Z,1010.41
2022-08-01T03:42:53.020Z,1010.41
2022-08-01T03:43:53.002Z,1010.39
2022-08-01T03:44:52.975Z,1010.39
2022-08-01T03:45:52.954Z,1010.39
2022-08-01T03:46:52.933Z,1010.40
2022-08-01T03:47:52.910Z,1010.38
2022-08-01T03:48:52.970Z,1010.36
2022-08-01T03:49:52.863Z,1010.39
2022-08-01T03:50:52.851Z,1010.35
2022-08-01T03:51:52.822Z,1010.39
2022-08-01T03:52:52.802Z,1010.42
2022-08-01T03:53:52.778Z,1010.44
2022-08-01T03:54:52.753Z,1010.44
2022-08-01T03:55:52.731Z,1010.45
2022-08-01T03:56:52.717Z,1010.43
2022-08-01T03:57:52.685Z,1010.44
2022-08-01T03:58:52.667Z,1010.46
2022-08-01T03:59:52.644Z,1010.44
2022-08-01T04:00:52.622Z,1010.43
2022-08-01T04:01:52.664Z,1010.46
2022-08-01T04:02:52.585Z,1010.45
2022-08-01T04:03:52.559Z,1010.46
2022-08-01T04:04:52.533Z,1010.49
2022-08-01T04:05:52.510Z,1010.47
2022-08-01T04:06:52.489Z,1010.49
2022-08-01T04:07:52.465Z,1010.49
2022-08-01T04:08:52.444Z,1010.50
2022-08-01T04:09:52.427Z,1010.49
2022-08-01T04:10:52.398Z,1010.53
2022-08-01T04:11:52.381Z,1010.55
2022-08-01T04:12:52.357Z,1010.54
2022-08-01T04:13:52.335Z,1010.56
2022-08-01T04:14:52.312Z,1010.56
2022-08-01T04:15:52.291Z,1010.54
2022-08-01T04:16:52.267Z,1010.59
2022-08-01T04:17:52.246Z,1010.57
2022-08-01T04:18:52.222Z,1010.61
2022-08-01T04:19:52.202Z,1010.57
2022-08-01T04:20:52.180Z,1010.56
2022-08-01T04:21:52.156Z,1010.55
2022-08-01T04:22:52.137Z,1010.56
2022-08-01T04:23:53.516Z,1010.56
2022-08-01T04:24:56.465Z,1010.59
2022-08-01T04:25:52.067Z,1010.58
2022-08-01T04:26:52.048Z,1010.58
2022-08-01T04:27:52.700Z,1010.63
2022-08-01T04:28:52.003Z,1010.62
2022-08-01T04:29:51.979Z,1010.65
2022-08-01T04:30:51.958Z,1010.63
2022-08-01T04:31:51.938Z,1010.65
2022-08-01T04:32:51.913Z,1010.64
2022-08-01T04:33:51.895Z,1010.65
2022-08-01T04:34:51.867Z,1010.67
2022-08-01T04:36:03.445Z,1010.68
2022-08-01T04:36:51.824Z,1010.67
2022-08-01T04:37:51.800Z,1010.74
2022-08-01T04:38:51.782Z,1010.73
2022-08-01T04:39:51.760Z,1010.76
2022-08-01T04:40:51.735Z,1010.76
2022-08-01T04:41:51.712Z,1010.74
2022-08-01T04:42:51.691Z,1010.75
2022-08-01T04:43:51.672Z,1010.73
2022-08-01T04:44:51.649Z,1010.75
2022-08-01T04:45:51.624Z,1010.77
2022-08-01T04:46:51.605Z,1010.76
2022-08-01T04:47:51.581Z,1010.81
2022-08-01T04:48:51.628Z,1010.78
2022-08-01T04:49:51.631Z,1010.79
2022-08-01T04:50:51.517Z,1010.75
2022-08-01T04:51:51.494Z,1010.75
2022-08-01T04:52:51.470Z,1010.78
2022-08-01T04:53:51.446Z,1010.79
2022-08-01T04:54:51.425Z,1010.78
2022-08-01T04:55:51.402Z,1010.80
2022-08-01T04:56:51.591Z,1010.82
2022-08-01T04:57:51.360Z,1010.86
2022-08-01T04:58:51.342Z,1010.85
2022-08-01T04:59:51.319Z,1010.87
2022-08-01T05:00:51.334Z,1010.85
2022-08-01T05:01:51.359Z,1010.85
2022-08-01T05:02:51.251Z,1010.86
2022-08-01T05:03:51.228Z,1010.87
2022-08-01T05:04:51.208Z,1010.87
2022-08-01T05:05:51.181Z,1010.89
2022-08-01T05:06:51.163Z,1010.91
2022-08-01T05:07:51.142Z,1010.93
2022-08-01T05:08:51.121Z,1010.91
2022-08-01T05:09:51.099Z,1010.92
2022-08-01T05:10:51.073Z,1010.94
2022-08-01T05:11:51.050Z,1010.96
2022-08-01T05:12:51.033Z,1010.97
2022-08-01T05:13:51.014Z,1010.95
2022-08-01T05:14:50.992Z,1010.96
2022-08-01T05:15:50.965Z,1011.01
2022-08-01T05:16:50.943Z,1010.97
2022-08-01T05:17:50.918Z,1010.98
2022-08-01T05:18:50.898Z,1011.00
2022-08-01T05:19:50.883Z,1011.00
2022-08-01T05:20:50.856Z,1011.00
2022-08-01T05:21:50.833Z,1010.96
2022-08-01T05:22:50.814Z,1010.99
2022-08-01T05:23:50.790Z,1011.06
2022-08-01T05:24:50.770Z,1011.04
2022-08-01T05:25:56.925Z,1011.05
2022-08-01T05:26:50.725Z,1011.03
2022-08-01T05:27:50.965Z,1011.11
2022-08-01T05:28:50.683Z,1011.12
2022-08-01T05:29:50.659Z,1011.04
2022-08-01T05:30:50.640Z,1011.09
2022-08-01T05:31:50.616Z,1011.06
2022-08-01T05:32:50.601Z,1011.07
2022-08-01T05:33:50.582Z,1011.09
2022-08-01T05:34:50.555Z,1011.05
2022-08-01T05:35:50.534Z,1011.05
2022-08-01T05:36:55.301Z,1011.08
2022-08-01T05:37:50.489Z,1011.10
2022-08-01T05:38:50.475Z,1011.06
2022-08-01T05:39:50.447Z,1011.07
2022-08-01T05:40:50.439Z,1011.06
2022-08-01T05:41:50.406Z,1011.07
2022-08-01T05:42:50.382Z,1011.07
2022-08-01T05:43:50.364Z,1011.11
2022-08-01T05:44:50.341Z,1011.09
2022-08-01T05:45:50.318Z,1011.09
2022-08-01T05:46:50.294Z,1011.12
2022-08-01T05:47:50.274Z,1011.15
2022-08-01T05:48:50.375Z,1011.12
2022-08-01T05:49:50.231Z,1011.08
2022-08-01T05:50:50.211Z,1011.11
2022-08-01T05:51:50.190Z,1011.14
2022-08-01T05:52:50.165Z,1011.13
2022-08-01T05:53:50.142Z,1011.15
2022-08-01T05:54:50.124Z,1011.12
2022-08-01T05:55:50.102Z,1011.09
2022-08-01T05:56:50.085Z,1011.12
2022-08-01T05:57:50.062Z,1011.13
2022-08-01T05:58:50.039Z,1011.08
2022-08-01T05:59:50.021Z,1011.10
2022-08-01T06:00:49.998Z,1011.16
2022-08-01T06:01:50.054Z,1011.09
2022-08-01T06:02:49.955Z,1011.12
2022-08-01T06:03:49.953Z,1011.09
2022-08-01T06:04:49.916Z,1011.10
2022-08-01T06:05:49.888Z,1011.13
2022-08-01T06:06:49.870Z,1011.12
2022-08-01T06:07:49.848Z,1011.16
2022-08-01T06:08:49.830Z,1011.15
2022-08-01T06:09:49.803Z,1011.16
2022-08-01T06:10:49.785Z,1011.19
2022-08-01T06:11:49.762Z,1011.16
2022-08-01T06:12:49.767Z,1011.14
2022-08-01T06:13:49.721Z,1011.18
2022-08-01T06:14:49.696Z,1011.19
2022-08-01T06:15:49.677Z,1011.25
2022-08-01T06:16:49.658Z,1011.24
2022-08-01T06:17:49.636Z,1011.25
2022-08-01T06:18:51.194Z,1011.24
2022-08-01T06:19:49.593Z,1011.24
2022-08-01T06:20:49.572Z,1011.29
2022-08-01T06:21:49.558Z,1011.34
2022-08-01T06:22:52.503Z,1011.39
2022-08-01T06:23:49.505Z,1011.37
2022-08-01T06:24:49.485Z,1011.43
2022-08-01T06:25:49.464Z,1011.42
2022-08-01T06:26:49.441Z,1011.38
2022-08-01T06:27:49.425Z,1011.42
2022-08-01T06:28:49.402Z,1011.44
2022-08-01T06:29:53.465Z,1011.43
2022-08-01T06:30:49.355Z,1011.48
2022-08-01T06:31:49.340Z,1011.51
2022-08-01T06:32:49.318Z,1011.48
2022-08-01T06:33:49.294Z,1011.52
2022-08-01T06:34:49.269Z,1011.45
2022-08-01T06:35:49.252Z,1011.50
2022-08-01T06:36:49.229Z,1011.50
2022-08-01T06:37:49.207Z,1011.50
2022-08-01T06:38:49.189Z,1011.52
2022-08-01T06:39:49.180Z,1011.49
2022-08-01T06:40:49.145Z,1011.54
2022-08-01T06:41:49.125Z,1011.58
2022-08-01T06:42:49.102Z,1011.61
2022-08-01T06:43:49.081Z,1011.60
2022-08-01T06:44:49.060Z,1011.61
2022-08-01T06:45:49.047Z,1011.55
2022-08-01T06:46:49.016Z,1011.58
2022-08-01T06:47:50.893Z,1011.59
2022-08-01T06:48:49.063Z,1011.60
2022-08-01T06:49:48.955Z,1011.61
2022-08-01T06:50:48.932Z,1011.63
2022-08-01T06:51:48.910Z,1011.58
2022-08-01T06:52:48.891Z,1011.62
2022-08-01T06:53:48.868Z,1011.61
2022-08-01T06:54:48.847Z,1011.64
2022-08-01T06:55:48.829Z,1011.63
2022-08-01T06:56:48.809Z,1011.64
2022-08-01T06:57:48.784Z,1011.68
2022-08-01T06:58:48.763Z,1011.71
2022-08-01T06:59:54.413Z,1011.70
2022-08-01T07:00:48.789Z,1011.70
2022-08-01T07:01:48.696Z,1011.72
2022-08-01T07:02:48.679Z,1011.70
2022-08-01T07:03:54.628Z,1011.70
2022-08-01T07:04:48.640Z,1011.68
2022-08-01T07:05:48.613Z,1011.69
2022-08-01T07:06:48.595Z,1011.71
2022-08-01T07:07:48.574Z,1011.71
2022-08-01T07:08:48.550Z,1011.65
2022-08-01T07:09:48.531Z,1011.64
2022-08-01T07:10:48.509Z,1011.66
2022-08-01T07:11:48.488Z,1011.69
2022-08-01T07:12:48.470Z,1011.66
2022-08-01T07:13:48.458Z,1011.66
2022-08-01T07:14:48.424Z,1011.69
2022-08-01T07:15:48.403Z,1011.65
2022-08-01T07:16:48.383Z,1011.65
2022-08-01T07:17:48.364Z,1011.69
2022-08-01T07:18:48.342Z,1011.77
2022-08-01T07:19:48.321Z,1011.76
2022-08-01T07:20:52.651Z,1011.80
2022-08-01T07:21:50.246Z,1011.73
2022-08-01T07:22:48.490Z,1011.75
2022-08-01T07:23:48.240Z,1011.74
2022-08-01T07:24:48.220Z,1011.75
2022-08-01T07:25:49.946Z,1011.78
2022-08-01T07:26:53.692Z,1011.78
2022-08-01T07:27:48.156Z,1011.78
2022-08-01T07:28:48.140Z,1011.83
2022-08-01T07:29:48.113Z,1011.82
2022-08-01T07:30:48.091Z,1011.85
2022-08-01T07:31:48.071Z,1011.83
2022-08-01T07:32:48.051Z,1011.83
2022-08-01T07:33:49.391Z,1011.85
2022-08-01T07:34:48.017Z,1011.82
2022-08-01T07:35:47.987Z,1011.87
2022-08-01T07:36:47.976Z,1011.81
2022-08-01T07:37:49.154Z,1011.83
2022-08-01T07:38:47.926Z,1011.85
2022-08-01T07:39:47.910Z,1011.83
2022-08-01T07:40:47.885Z,1011.84
2022-08-01T07:42:06.504Z,1011.85
2022-08-01T07:42:47.842Z,1011.81
2022-08-01T07:43:56.669Z,1011.83
2022-08-01T07:44:47.801Z,1011.80
2022-08-01T07:45:47.782Z,1011.80
2022-08-01T07:46:47.757Z,1011.84
2022-08-01T07:47:47.736Z,1011.79
2022-08-01T07:48:47.748Z,1011.87
2022-08-01T07:49:47.739Z,1011.88
2022-08-01T07:50:47.677Z,1011.85
2022-08-01T07:52:02.308Z,1011.90
2022-08-01T07:52:47.632Z,1011.93
2022-08-01T07:53:47.614Z,1011.95
2022-08-01T07:54:52.009Z,1011.96
2022-08-01T07:55:47.572Z,1011.96
2022-08-01T07:56:47.551Z,1011.96
2022-08-01T07:57:47.534Z,1011.93
2022-08-01T07:58:47.510Z,1011.96
2022-08-01T07:59:47.707Z,1011.96
2022-08-01T08:00:47.471Z,1011.94
2022-08-01T08:01:47.473Z,1011.98
2022-08-01T08:02:47.427Z,1011.99
2022-08-01T08:03:47.410Z,1012.01
2022-08-01T08:04:49.289Z,1012.01
2022-08-01T08:05:58.660Z,1012.03
2022-08-01T08:06:47.348Z,1012.03
2022-08-01T08:07:47.328Z,1012.04
2022-08-01T08:08:47.309Z,1012.11
2022-08-01T08:09:51.137Z,1012.15
2022-08-01T08:10:47.268Z,1012.17
2022-08-01T08:11:48.390Z,1012.16
2022-08-01T08:12:47.226Z,1012.16
2022-08-01T08:13:47.209Z,1012.17
2022-08-01T08:14:47.340Z,1012.14
2022-08-01T08:15:48.420Z,1012.15
2022-08-01T08:16:47.150Z,1012.13
2022-08-01T08:17:54.881Z,1012.16
2022-08-01T08:18:47.122Z,1012.18
2022-08-01T08:19:47.092Z,1012.16
2022-08-01T08:20:47.070Z,1012.19
2022-08-01T08:21:47.050Z,1012.19
2022-08-01T08:22:47.033Z,1012.18
2022-08-01T08:23:47.009Z,1012.19
2022-08-01T08:24:47.239Z,1012.23
2022-08-01T08:25:46.971Z,1012.23
2022-08-01T08:26:46.949Z,1012.24
2022-08-01T08:27:46.931Z,1012.27
2022-08-01T08:28:46.910Z,1012.26
2022-08-01T08:29:46.890Z,1012.22
2022-08-01T08:30:46.869Z,1012.23
2022-08-01T08:31:52.285Z,1012.27
2022-08-01T08:32:46.829Z,1012.27
2022-08-01T08:33:46.809Z,1012.30
2022-08-01T08:34:46.787Z,1012.32
2022-08-01T08:35:53.770Z,1012.29
2022-08-01T08:36:47.933Z,1012.36
2022-08-01T08:37:47.727Z,1012.30
2022-08-01T08:38:46.702Z,1012.32
2022-08-01T08:39:46.685Z,1012.33
2022-08-01T08:40:46.667Z,1012.36
2022-08-01T08:41:49.061Z,1012.40
2022-08-01T08:42:46.623Z,1012.41
2022-08-01T08:43:46.602Z,1012.39
2022-08-01T08:44:46.582Z,1012.45
2022-08-01T08:45:59.063Z,1012.45
2022-08-01T08:46:46.544Z,1012.44
2022-08-01T08:47:46.520Z,1012.49
2022-08-01T08:48:46.499Z,1012.50
2022-08-01T08:49:46.543Z,1012.51
2022-08-01T08:50:46.457Z,1012.58
2022-08-01T08:51:46.436Z,1012.58
2022-08-01T08:52:46.413Z,1012.67
2022-08-01T08:53:46.395Z,1012.67
2022-08-01T08:54:46.374Z,1012.74
2022-08-01T08:55:55.471Z,1012.72
2022-08-01T08:56:46.330Z,1012.69
2022-08-01T08:57:46.306Z,1012.71
2022-08-01T08:58:46.284Z,1012.73
2022-08-01T08:59:46.263Z,1012.75
2022-08-01T09:00:46.242Z,1012.80
2022-08-01T09:01:46.217Z,1012.78
2022-08-01T09:02:46.274Z,1012.78
2022-08-01T09:03:46.172Z,1012.78
2022-08-01T09:04:46.155Z,1012.81
2022-08-01T09:05:46.132Z,1012.76
2022-08-01T09:06:46.110Z,1012.77
2022-08-01T09:07:46.105Z,1012.81
2022-08-01T09:08:46.068Z,1012.79
2022-08-01T09:09:46.043Z,1012.77
2022-08-01T09:10:46.021Z,1012.80
2022-08-01T09:11:46.002Z,1012.83
2022-08-01T09:12:45.979Z,1012.83
2022-08-01T09:13:45.955Z,1012.85
2022-08-01T09:14:45.936Z,1012.86
2022-08-01T09:15:45.911Z,1012.84
2022-08-01T09:16:48.765Z,1012.84
2022-08-01T09:17:45.868Z,1012.86
2022-08-01T09:18:45.875Z,1012.83
2022-08-01T09:19:45.830Z,1012.87
2022-08-01T09:20:45.805Z,1012.88
2022-08-01T09:21:45.785Z,1012.93
2022-08-01T09:22:47.861Z,1012.89
2022-08-01T09:23:53.352Z,1012.91
2022-08-01T09:24:45.722Z,1012.94
2022-08-01T09:25:46.267Z,1012.95
2022-08-01T09:26:45.679Z,1012.94
2022-08-01T09:27:46.494Z,1012.95
2022-08-01T09:28:47.940Z,1012.94
2022-08-01T09:29:45.620Z,1012.97
2022-08-01T09:30:45.601Z,1013.02
2022-08-01T09:31:47.641Z,1013.05
2022-08-01T09:32:45.567Z,1013.01
2022-08-01T09:33:45.544Z,1012.99
2022-08-01T09:34:45.524Z,1013.05
2022-08-01T09:35:45.504Z,1013.04
2022-08-01T09:36:45.484Z,1013.02
2022-08-01T09:37:47.440Z,1013.05
2022-08-01T09:38:50.908Z,1013.04
2022-08-01T09:39:45.424Z,1013.08
2022-08-01T09:40:45.404Z,1013.06
2022-08-01T09:41:45.386Z,1013.09
2022-08-01T09:42:45.369Z,1013.08
2022-08-01T09:43:45.346Z,1013.09
2022-08-01T09:44:54.932Z,1013.10
2022-08-01T09:45:45.712Z,1013.10
2022-08-01T09:46:45.286Z,1013.14
2022-08-01T09:47:45.271Z,1013.14
2022-08-01T09:48:45.250Z,1013.15
2022-08-01T09:49:50.152Z,1013.16
2022-08-01T09:50:45.213Z,1013.15
2022-08-01T09:51:59.604Z,1013.15
2022-08-01T09:52:45.169Z,1013.15
2022-08-01T09:53:51.068Z,1013.17
2022-08-01T09:54:45.133Z,1013.17
2022-08-01T09:55:45.114Z,1013.19
2022-08-01T09:56:45.090Z,1013.14
2022-08-01T09:57:45.070Z,1013.20
2022-08-01T09:58:45.051Z,1013.22
2022-08-01T09:59:57.766Z,1013.19
2022-08-01T10:00:45.914Z,1013.19
2022-08-01T10:01:44.996Z,1013.18
2022-08-01T10:02:44.973Z,1013.23
2022-08-01T10:03:45.053Z,1013.20
2022-08-01T10:04:44.938Z,1013.20
2022-08-01T10:05:46.839Z,1013.24
2022-08-01T10:06:44.901Z,1013.18
2022-08-01T10:07:44.880Z,1013.19
2022-08-01T10:08:44.863Z,1013.19
2022-08-01T10:09:44.843Z,1013.21
2022-08-01T10:10:46.361Z,1013.26
2022-08-01T10:11:45.305Z,1013.25
2022-08-01T10:12:45.733Z,1013.27
2022-08-01T10:13:44.764Z,1013.30
2022-08-01T10:14:46.241Z,1013.31
2022-08-01T10:15:44.729Z,1013.35
2022-08-01T10:16:44.713Z,1013.32
2022-08-01T10:17:50.851Z,1013.36
2022-08-01T10:18:44.680Z,1013.39
2022-08-01T10:19:44.659Z,1013.37
2022-08-01T10:20:44.639Z,1013.36
2022-08-01T10:21:57.895Z,1013.33
2022-08-01T10:22:44.603Z,1013.37
2022-08-01T10:23:44.600Z,1013.37
2022-08-01T10:24:44.565Z,1013.42
2022-08-01T10:25:46.695Z,1013.40
2022-08-01T10:26:44.527Z,1013.42
2022-08-01T10:27:44.506Z,1013.42
2022-08-01T10:28:44.488Z,1013.41
2022-08-01T10:29:46.674Z,1013.40
2022-08-01T10:30:44.447Z,1013.39
2022-08-01T10:31:44.436Z,1013.42
2022-08-01T10:32:44.415Z,1013.42
2022-08-01T10:33:50.377Z,1013.43
2022-08-01T10:34:45.001Z,1013.39
2022-08-01T10:35:47.896Z,1013.40
2022-08-01T10:36:44.332Z,1013.40
2022-08-01T10:37:51.875Z,1013.37
2022-08-01T10:38:44.296Z,1013.42
2022-08-01T10:39:44.744Z,1013.43
2022-08-01T10:40:44.252Z,1013.44
2022-08-01T10:41:44.232Z,1013.43
2022-08-01T10:42:44.209Z,1013.44
2022-08-01T10:43:45.655Z,1013.48
2022-08-01T10:44:44.171Z,1013.43
2022-08-01T10:45:44.153Z,1013.43
2022-08-01T10:46:45.829Z,1013.47
2022-08-01T10:47:50.163Z,1013.42
2022-08-01T10:48:44.105Z,1013.47
2022-08-01T10:49:44.118Z,1013.40
2022-08-01T10:50:44.207Z,1013.44
2022-08-01T10:51:52.330Z,1013.46
2022-08-01T10:52:44.036Z,1013.49
2022-08-01T10:53:43.987Z,1013.48
2022-08-01T10:54:52.128Z,1013.48
2022-08-01T10:55:43.964Z,1013.56
2022-08-01T10:56:43.930Z,1013.52
2022-08-01T10:57:43.909Z,1013.49
2022-08-01T10:58:44.161Z,1013.52
2022-08-01T10:59:50.861Z,1013.50
2022-08-01T11:00:43.855Z,1013.53
2022-08-01T11:01:45.220Z,1013.59
2022-08-01T11:02:45.594Z,1013.55
2022-08-01T11:03:56.855Z,1013.54
2022-08-01T11:04:44.265Z,1013.57
2022-08-01T11:05:43.758Z,1013.60
2022-08-01T11:06:43.740Z,1013.61
2022-08-01T11:07:43.737Z,1013.57
2022-08-01T11:08:43.702Z,1013.58
2022-08-01T11:09:45.963Z,1013.58
2022-08-01T11:10:43.849Z,1013.57
2022-08-01T11:11:43.646Z,1013.57
2022-08-01T11:12:44.022Z,1013.56
2022-08-01T11:13:43.611Z,1013.57
2022-08-01T11:14:55.674Z,1013.59
2022-08-01T11:15:50.094Z,1013.57
2022-08-01T11:16:43.556Z,1013.56
2022-08-01T11:17:43.593Z,1013.59
2022-08-01T11:18:43.523Z,1013.61
2022-08-01T11:19:43.506Z,1013.61
2022-08-01T11:20:43.486Z,1013.61
2022-08-01T11:21:57.932Z,1013.65
2022-08-01T11:22:43.450Z,1013.66
2022-08-01T11:23:43.428Z,1013.65
2022-08-01T11:24:43.409Z,1013.66
2022-08-01T11:26:05.540Z,1013.65
2022-08-01T11:26:43.375Z,1013.61
2022-08-01T11:27:43.356Z,1013.57
2022-08-01T11:29:04.699Z,1013.59
2022-08-01T11:29:43.315Z,1013.59
2022-08-01T11:30:43.300Z,1013.61
2022-08-01T11:31:43.278Z,1013.64
2022-08-01T11:33:06.544Z,1013.63
2022-08-01T11:33:45.505Z,1013.64
2022-08-01T11:34:43.225Z,1013.59
2022-08-01T11:35:43.208Z,1013.57
2022-08-01T11:36:58.324Z,1013.63
2022-08-01T11:37:43.172Z,1013.61
2022-08-01T11:38:43.359Z,1013.62
2022-08-01T11:39:43.136Z,1013.62
2022-08-01T11:40:43.118Z,1013.67
2022-08-01T11:41:45.093Z,1013.68
2022-08-01T11:42:43.082Z,1013.69
2022-08-01T11:43:43.062Z,1013.66
2022-08-01T11:44:43.044Z,1013.67
2022-08-01T11:45:43.026Z,1013.62
2022-08-01T11:46:43.013Z,1013.67
2022-08-01T11:47:42.995Z,1013.63
2022-08-01T11:48:42.975Z,1013.62
2022-08-01T11:49:43.506Z,1013.63
2022-08-01T11:50:42.943Z,1013.65
2022-08-01T11:51:42.928Z,1013.66
2022-08-01T11:52:42.909Z,1013.58
2022-08-01T11:53:42.887Z,1013.62
2022-08-01T11:54:42.872Z,1013.64
2022-08-01T11:55:42.857Z,1013.66
2022-08-01T11:56:46.478Z,1013.65
2022-08-01T11:57:42.826Z,1013.59
2022-08-01T11:58:43.820Z,1013.61
2022-08-01T11:59:59.834Z,1013.63
2022-08-01T12:00:44.013Z,1013.65
2022-08-01T12:01:42.755Z,1013.68
2022-08-01T12:02:42.900Z,1013.68
2022-08-01T12:03:44.437Z,1013.66
2022-08-01T12:04:42.707Z,1013.59
2022-08-01T12:05:43.294Z,1013.62